sensor_id;sensor_type;location;lat;lon;timestamp;P1;durP1;ratioP1;P2;durP2;ratioP2
2055;SDS011;1033;52.560;13.374;2023-03-08T00:01:37;16.88;;;2.05;;
2055;SDS011;1033;52.560;13.374;2023-03-08T00:04:06;4.97;;;2.05;;
2055;SDS011;1033;52.560;13.374;2023-03-08T00:06:38;7.15;;;1.92;;
2055;SDS011;1033;52.560;13.374;2023-03-08T00:09:08;3.65;;;2.05;;
2055;SDS011;1033;52.560;13.374;2023-03-08T00:11:37;5.80;;;2.40;;
2055;SDS011;1033;52.560;13.374;2023-03-08T00:14:06;3.20;;;1.75;;
2055;SDS011;1033;52.560;13.374;2023-03-08T00:16:35;4.72;;;2.55;;
2055;SDS011;1033;52.560;13.374;2023-03-08T00:19:04;14.35;;;2.35;;
2055;SDS011;1033;52.560;13.374;2023-03-08T00:21:33;5.70;;;2.47;;
2055;SDS011;1033;52.560;13.374;2023-03-08T00:24:04;6.78;;;2.20;;
2055;SDS011;1033;52.560;13.374;2023-03-08T00:26:33;6.80;;;3.13;;
2055;SDS011;1033;52.560;13.374;2023-03-08T00:29:02;3.63;;;2.28;;
2055;SDS011;1033;52.560;13.374;2023-03-08T00:31:32;6.32;;;2.42;;
2055;SDS011;1033;52.560;13.374;2023-03-08T00:34:01;9.88;;;2.45;;
2055;SDS011;1033;52.560;13.374;2023-03-08T00:36:30;5.00;;;2.85;;
2055;SDS011;1033;52.560;13.374;2023-03-08T00:38:59;8.13;;;3.28;;
2055;SDS011;1033;52.560;13.374;2023-03-08T00:41:30;3.38;;;2.45;;
2055;SDS011;1033;52.560;13.374;2023-03-08T00:43:59;4.30;;;2.60;;
2055;SDS011;1033;52.560;13.374;2023-03-08T00:46:28;7.63;;;2.80;;
2055;SDS011;1033;52.560;13.374;2023-03-08T00:48:58;3.20;;;2.50;;
2055;SDS011;1033;52.560;13.374;2023-03-08T00:51:30;4.40;;;2.70;;
2055;SDS011;1033;52.560;13.374;2023-03-08T00:53:59;10.02;;;3.60;;
2055;SDS011;1033;52.560;13.374;2023-03-08T00:56:28;6.28;;;3.05;;
2055;SDS011;1033;52.560;13.374;2023-03-08T00:58:58;5.38;;;2.72;;
2055;SDS011;1033;52.560;13.374;2023-03-08T01:01:27;4.78;;;3.65;;
2055;SDS011;1033;52.560;13.374;2023-03-08T01:03:57;13.57;;;3.83;;
2055;SDS011;1033;52.560;13.374;2023-03-08T01:06:25;10.18;;;2.97;;
2055;SDS011;1033;52.560;13.374;2023-03-08T01:08:54;11.00;;;4.28;;
2055;SDS011;1033;52.560;13.374;2023-03-08T01:11:24;6.55;;;3.53;;
2055;SDS011;1033;52.560;13.374;2023-03-08T01:13:55;8.73;;;4.18;;
2055;SDS011;1033;52.560;13.374;2023-03-08T01:16:25;8.73;;;3.78;;
2055;SDS011;1033;52.560;13.374;2023-03-08T01:18:57;6.22;;;4.20;;
2055;SDS011;1033;52.560;13.374;2023-03-08T01:21:27;10.73;;;3.50;;
2055;SDS011;1033;52.560;13.374;2023-03-08T01:23:57;3.90;;;3.47;;
2055;SDS011;1033;52.560;13.374;2023-03-08T01:26:27;5.90;;;3.53;;
2055;SDS011;1033;52.560;13.374;2023-03-08T01:28:57;5.88;;;3.83;;
2055;SDS011;1033;52.560;13.374;2023-03-08T01:31:27;6.15;;;3.85;;
2055;SDS011;1033;52.560;13.374;2023-03-08T01:33:58;5.18;;;3.95;;
2055;SDS011;1033;52.560;13.374;2023-03-08T01:36:27;3.55;;;3.15;;
2055;SDS011;1033;52.560;13.374;2023-03-08T01:38:58;6.68;;;2.90;;
2055;SDS011;1033;52.560;13.374;2023-03-08T01:41:28;6.93;;;4.15;;
2055;SDS011;1033;52.560;13.374;2023-03-08T01:44:01;4.78;;;3.28;;
2055;SDS011;1033;52.560;13.374;2023-03-08T01:46:30;5.95;;;4.40;;
2055;SDS011;1033;52.560;13.374;2023-03-08T01:49:09;6.72;;;3.60;;
2055;SDS011;1033;52.560;13.374;2023-03-08T01:51:41;3.22;;;2.92;;
2055;SDS011;1033;52.560;13.374;2023-03-08T01:54:14;6.20;;;3.58;;
2055;SDS011;1033;52.560;13.374;2023-03-08T01:56:46;6.05;;;4.18;;
2055;SDS011;1033;52.560;13.374;2023-03-08T01:59:19;11.40;;;4.55;;
2055;SDS011;1033;52.560;13.374;2023-03-08T02:01:56;9.02;;;4.05;;
2055;SDS011;1033;52.560;13.374;2023-03-08T02:04:26;5.32;;;3.80;;
2055;SDS011;1033;52.560;13.374;2023-03-08T02:06:56;6.45;;;4.05;;
2055;SDS011;1033;52.560;13.374;2023-03-08T02:09:26;6.82;;;4.35;;
2055;SDS011;1033;52.560;13.374;2023-03-08T02:11:58;14.15;;;5.32;;
2055;SDS011;1033;52.560;13.374;2023-03-08T02:14:32;6.60;;;5.13;;
2055;SDS011;1033;52.560;13.374;2023-03-08T02:17:01;8.23;;;4.47;;
2055;SDS011;1033;52.560;13.374;2023-03-08T02:19:32;10.00;;;5.47;;
2055;SDS011;1033;52.560;13.374;2023-03-08T02:22:08;5.93;;;4.10;;
2055;SDS011;1033;52.560;13.374;2023-03-08T02:24:40;11.63;;;6.47;;
2055;SDS011;1033;52.560;13.374;2023-03-08T02:27:10;6.60;;;3.50;;
2055;SDS011;1033;52.560;13.374;2023-03-08T02:29:43;7.70;;;5.28;;
2055;SDS011;1033;52.560;13.374;2023-03-08T02:32:14;12.02;;;5.10;;
2055;SDS011;1033;52.560;13.374;2023-03-08T02:34:43;10.73;;;5.53;;
2055;SDS011;1033;52.560;13.374;2023-03-08T02:37:12;9.77;;;6.07;;
2055;SDS011;1033;52.560;13.374;2023-03-08T02:39:42;9.07;;;5.22;;
2055;SDS011;1033;52.560;13.374;2023-03-08T02:42:11;5.75;;;5.15;;
2055;SDS011;1033;52.560;13.374;2023-03-08T02:44:41;16.33;;;5.68;;
2055;SDS011;1033;52.560;13.374;2023-03-08T02:47:10;7.55;;;4.85;;
2055;SDS011;1033;52.560;13.374;2023-03-08T02:49:39;8.90;;;6.13;;
2055;SDS011;1033;52.560;13.374;2023-03-08T02:52:08;10.63;;;5.60;;
2055;SDS011;1033;52.560;13.374;2023-03-08T02:54:38;13.90;;;8.43;;
2055;SDS011;1033;52.560;13.374;2023-03-08T02:57:08;9.98;;;7.20;;
2055;SDS011;1033;52.560;13.374;2023-03-08T02:59:38;12.82;;;7.38;;
2055;SDS011;1033;52.560;13.374;2023-03-08T03:02:07;8.35;;;6.55;;
2055;SDS011;1033;52.560;13.374;2023-03-08T03:04:36;11.15;;;7.82;;
2055;SDS011;1033;52.560;13.374;2023-03-08T03:07:06;9.27;;;7.60;;
2055;SDS011;1033;52.560;13.374;2023-03-08T03:09:36;11.45;;;8.57;;
2055;SDS011;1033;52.560;13.374;2023-03-08T03:12:05;16.05;;;7.85;;
2055;SDS011;1033;52.560;13.374;2023-03-08T03:14:39;14.20;;;9.00;;
2055;SDS011;1033;52.560;13.374;2023-03-08T03:17:09;13.52;;;7.53;;
2055;SDS011;1033;52.560;13.374;2023-03-08T03:19:38;12.80;;;7.45;;
2055;SDS011;1033;52.560;13.374;2023-03-08T03:22:07;21.50;;;8.30;;
2055;SDS011;1033;52.560;13.374;2023-03-08T03:24:36;12.25;;;8.20;;
2055;SDS011;1033;52.560;13.374;2023-03-08T03:27:06;15.80;;;8.57;;
2055;SDS011;1033;52.560;13.374;2023-03-08T03:29:38;17.98;;;10.40;;
2055;SDS011;1033;52.560;13.374;2023-03-08T03:32:12;18.70;;;9.90;;
2055;SDS011;1033;52.560;13.374;2023-03-08T03:34:41;12.07;;;8.27;;
2055;SDS011;1033;52.560;13.374;2023-03-08T03:37:11;16.17;;;9.50;;
2055;SDS011;1033;52.560;13.374;2023-03-08T03:39:40;12.05;;;8.02;;
2055;SDS011;1033;52.560;13.374;2023-03-08T03:42:13;15.77;;;8.70;;
2055;SDS011;1033;52.560;13.374;2023-03-08T03:44:51;12.90;;;7.18;;
2055;SDS011;1033;52.560;13.374;2023-03-08T03:47:21;10.00;;;7.18;;
2055;SDS011;1033;52.560;13.374;2023-03-08T03:49:55;16.05;;;9.40;;
2055;SDS011;1033;52.560;13.374;2023-03-08T03:52:28;11.40;;;8.60;;
2055;SDS011;1033;52.560;13.374;2023-03-08T03:55:01;16.42;;;8.60;;
2055;SDS011;1033;52.560;13.374;2023-03-08T03:57:31;11.98;;;8.07;;
2055;SDS011;1033;52.560;13.374;2023-03-08T04:00:02;15.38;;;8.10;;
2055;SDS011;1033;52.560;13.374;2023-03-08T04:02:38;21.27;;;8.48;;
2055;SDS011;1033;52.560;13.374;2023-03-08T04:05:11;13.07;;;8.45;;
2055;SDS011;1033;52.560;13.374;2023-03-08T04:07:44;16.77;;;8.80;;
2055;SDS011;1033;52.560;13.374;2023-03-08T04:10:13;13.25;;;8.80;;
2055;SDS011;1033;52.560;13.374;2023-03-08T04:12:43;9.40;;;6.15;;
2055;SDS011;1033;52.560;13.374;2023-03-08T04:15:18;12.63;;;7.43;;
2055;SDS011;1033;52.560;13.374;2023-03-08T04:17:49;20.20;;;8.40;;
2055;SDS011;1033;52.560;13.374;2023-03-08T04:20:21;13.15;;;8.20;;
2055;SDS011;1033;52.560;13.374;2023-03-08T04:22:54;12.40;;;8.60;;
2055;SDS011;1033;52.560;13.374;2023-03-08T04:25:31;14.40;;;9.43;;
2055;SDS011;1033;52.560;13.374;2023-03-08T04:28:02;14.23;;;8.43;;
2055;SDS011;1033;52.560;13.374;2023-03-08T04:30:33;11.38;;;7.85;;
2055;SDS011;1033;52.560;13.374;2023-03-08T04:33:04;16.77;;;9.48;;
2055;SDS011;1033;52.560;13.374;2023-03-08T04:35:42;13.07;;;8.43;;
2055;SDS011;1033;52.560;13.374;2023-03-08T04:38:16;10.93;;;9.00;;
2055;SDS011;1033;52.560;13.374;2023-03-08T04:40:48;19.15;;;9.07;;
2055;SDS011;1033;52.560;13.374;2023-03-08T04:43:42;13.18;;;7.70;;
2055;SDS011;1033;52.560;13.374;2023-03-08T04:46:15;12.40;;;7.45;;
2055;SDS011;1033;52.560;13.374;2023-03-08T04:48:46;16.13;;;9.52;;
2055;SDS011;1033;52.560;13.374;2023-03-08T04:51:19;17.50;;;8.45;;
2055;SDS011;1033;52.560;13.374;2023-03-08T04:53:50;12.98;;;8.35;;
2055;SDS011;1033;52.560;13.374;2023-03-08T04:56:20;9.88;;;6.90;;
2055;SDS011;1033;52.560;13.374;2023-03-08T04:58:50;10.63;;;7.30;;
2055;SDS011;1033;52.560;13.374;2023-03-08T05:01:22;12.00;;;8.30;;
2055;SDS011;1033;52.560;13.374;2023-03-08T05:03:52;11.55;;;8.10;;
2055;SDS011;1033;52.560;13.374;2023-03-08T05:06:30;14.32;;;9.57;;
2055;SDS011;1033;52.560;13.374;2023-03-08T05:08:59;20.60;;;10.30;;
2055;SDS011;1033;52.560;13.374;2023-03-08T05:11:28;14.43;;;9.45;;
2055;SDS011;1033;52.560;13.374;2023-03-08T05:13:58;15.57;;;9.05;;
2055;SDS011;1033;52.560;13.374;2023-03-08T05:16:29;15.90;;;10.02;;
2055;SDS011;1033;52.560;13.374;2023-03-08T05:18:58;18.30;;;10.18;;
2055;SDS011;1033;52.560;13.374;2023-03-08T05:21:34;13.63;;;9.00;;
2055;SDS011;1033;52.560;13.374;2023-03-08T05:24:03;15.35;;;9.90;;
2055;SDS011;1033;52.560;13.374;2023-03-08T05:26:35;17.05;;;9.63;;
2055;SDS011;1033;52.560;13.374;2023-03-08T05:29:06;20.77;;;9.18;;
2055;SDS011;1033;52.560;13.374;2023-03-08T05:31:38;22.95;;;10.60;;
2055;SDS011;1033;52.560;13.374;2023-03-08T05:34:11;14.95;;;9.68;;
2055;SDS011;1033;52.560;13.374;2023-03-08T05:36:44;15.85;;;9.30;;
2055;SDS011;1033;52.560;13.374;2023-03-08T05:39:13;15.70;;;9.20;;
2055;SDS011;1033;52.560;13.374;2023-03-08T05:41:53;12.73;;;7.65;;
2055;SDS011;1033;52.560;13.374;2023-03-08T05:44:28;15.77;;;7.95;;
2055;SDS011;1033;52.560;13.374;2023-03-08T05:46:59;12.38;;;9.70;;
2055;SDS011;1033;52.560;13.374;2023-03-08T05:49:29;13.77;;;8.10;;
2055;SDS011;1033;52.560;13.374;2023-03-08T05:51:58;13.60;;;8.55;;
2055;SDS011;1033;52.560;13.374;2023-03-08T05:54:27;18.75;;;9.05;;
2055;SDS011;1033;52.560;13.374;2023-03-08T05:57:01;13.15;;;8.57;;
2055;SDS011;1033;52.560;13.374;2023-03-08T05:59:30;12.25;;;7.15;;
2055;SDS011;1033;52.560;13.374;2023-03-08T06:02:03;12.05;;;7.85;;
2055;SDS011;1033;52.560;13.374;2023-03-08T06:04:40;13.15;;;7.72;;
2055;SDS011;1033;52.560;13.374;2023-03-08T06:07:11;13.38;;;8.23;;
2055;SDS011;1033;52.560;13.374;2023-03-08T06:09:45;16.30;;;9.20;;
2055;SDS011;1033;52.560;13.374;2023-03-08T06:12:17;14.95;;;8.65;;
2055;SDS011;1033;52.560;13.374;2023-03-08T06:14:51;12.40;;;9.15;;
2055;SDS011;1033;52.560;13.374;2023-03-08T06:17:24;9.23;;;7.47;;
2055;SDS011;1033;52.560;13.374;2023-03-08T06:19:55;13.15;;;8.35;;
2055;SDS011;1033;52.560;13.374;2023-03-08T06:22:25;10.05;;;7.93;;
2055;SDS011;1033;52.560;13.374;2023-03-08T06:24:55;11.43;;;8.02;;
2055;SDS011;1033;52.560;13.374;2023-03-08T06:27:30;13.45;;;8.15;;
2055;SDS011;1033;52.560;13.374;2023-03-08T06:30:02;9.05;;;7.00;;
2055;SDS011;1033;52.560;13.374;2023-03-08T06:32:34;10.98;;;7.65;;
2055;SDS011;1033;52.560;13.374;2023-03-08T06:35:05;14.55;;;8.15;;
2055;SDS011;1033;52.560;13.374;2023-03-08T06:37:40;10.25;;;6.68;;
2055;SDS011;1033;52.560;13.374;2023-03-08T06:40:10;14.55;;;8.30;;
2055;SDS011;1033;52.560;13.374;2023-03-08T06:42:40;8.23;;;6.30;;
2055;SDS011;1033;52.560;13.374;2023-03-08T06:45:12;12.32;;;8.52;;
2055;SDS011;1033;52.560;13.374;2023-03-08T06:47:43;10.43;;;7.25;;
2055;SDS011;1033;52.560;13.374;2023-03-08T06:50:13;11.73;;;7.97;;
2055;SDS011;1033;52.560;13.374;2023-03-08T06:52:44;7.68;;;6.40;;
2055;SDS011;1033;52.560;13.374;2023-03-08T06:55:19;14.35;;;7.82;;
2055;SDS011;1033;52.560;13.374;2023-03-08T06:57:48;9.98;;;7.93;;
2055;SDS011;1033;52.560;13.374;2023-03-08T07:00:18;11.57;;;7.63;;
2055;SDS011;1033;52.560;13.374;2023-03-08T07:02:49;13.05;;;8.38;;
2055;SDS011;1033;52.560;13.374;2023-03-08T07:05:19;15.38;;;8.35;;
2055;SDS011;1033;52.560;13.374;2023-03-08T07:07:48;11.63;;;7.30;;
2055;SDS011;1033;52.560;13.374;2023-03-08T07:10:18;17.70;;;12.32;;
2055;SDS011;1033;52.560;13.374;2023-03-08T07:12:48;13.00;;;8.35;;
2055;SDS011;1033;52.560;13.374;2023-03-08T07:15:19;12.60;;;8.57;;
2055;SDS011;1033;52.560;13.374;2023-03-08T07:17:51;11.93;;;7.15;;
2055;SDS011;1033;52.560;13.374;2023-03-08T07:20:24;9.57;;;7.28;;
2055;SDS011;1033;52.560;13.374;2023-03-08T07:22:54;10.63;;;7.30;;
2055;SDS011;1033;52.560;13.374;2023-03-08T07:25:27;16.67;;;6.80;;
2055;SDS011;1033;52.560;13.374;2023-03-08T07:27:57;14.25;;;7.35;;
2055;SDS011;1033;52.560;13.374;2023-03-08T07:33:23;11.25;;;7.97;;
2055;SDS011;1033;52.560;13.374;2023-03-08T07:35:52;11.88;;;8.95;;
2055;SDS011;1033;52.560;13.374;2023-03-08T07:38:22;10.80;;;7.93;;
2055;SDS011;1033;52.560;13.374;2023-03-08T07:40:52;15.55;;;7.13;;
2055;SDS011;1033;52.560;13.374;2023-03-08T07:43:22;10.65;;;7.43;;
2055;SDS011;1033;52.560;13.374;2023-03-08T07:46:02;16.02;;;7.25;;
2055;SDS011;1033;52.560;13.374;2023-03-08T07:48:33;13.68;;;9.07;;
2055;SDS011;1033;52.560;13.374;2023-03-08T07:51:03;10.75;;;7.40;;
2055;SDS011;1033;52.560;13.374;2023-03-08T07:53:35;10.60;;;8.20;;
2055;SDS011;1033;52.560;13.374;2023-03-08T07:56:05;12.00;;;8.68;;
2055;SDS011;1033;52.560;13.374;2023-03-08T07:58:35;10.32;;;7.30;;
2055;SDS011;1033;52.560;13.374;2023-03-08T08:04:04;7.75;;;6.10;;
2055;SDS011;1033;52.560;13.374;2023-03-08T08:06:34;18.15;;;7.78;;
2055;SDS011;1033;52.560;13.374;2023-03-08T08:09:04;8.70;;;7.07;;
2055;SDS011;1033;52.560;13.374;2023-03-08T08:11:33;9.20;;;7.25;;
2055;SDS011;1033;52.560;13.374;2023-03-08T08:14:03;8.85;;;6.55;;
2055;SDS011;1033;52.560;13.374;2023-03-08T08:16:33;9.57;;;7.40;;
2055;SDS011;1033;52.560;13.374;2023-03-08T08:19:03;13.55;;;7.22;;
2055;SDS011;1033;52.560;13.374;2023-03-08T08:21:34;9.35;;;8.15;;
2055;SDS011;1033;52.560;13.374;2023-03-08T08:24:03;11.48;;;7.85;;
2055;SDS011;1033;52.560;13.374;2023-03-08T08:26:33;10.32;;;7.03;;
2055;SDS011;1033;52.560;13.374;2023-03-08T08:29:02;10.77;;;7.55;;
2055;SDS011;1033;52.560;13.374;2023-03-08T08:31:32;7.63;;;6.78;;
2055;SDS011;1033;52.560;13.374;2023-03-08T08:34:01;8.85;;;5.65;;
2055;SDS011;1033;52.560;13.374;2023-03-08T08:36:32;7.07;;;6.15;;
2055;SDS011;1033;52.560;13.374;2023-03-08T08:39:01;9.18;;;6.35;;
2055;SDS011;1033;52.560;13.374;2023-03-08T08:41:30;9.45;;;6.85;;
2055;SDS011;1033;52.560;13.374;2023-03-08T08:43:59;9.63;;;6.78;;
2055;SDS011;1033;52.560;13.374;2023-03-08T08:46:29;8.18;;;6.35;;
2055;SDS011;1033;52.560;13.374;2023-03-08T08:49:00;8.75;;;6.65;;
2055;SDS011;1033;52.560;13.374;2023-03-08T08:51:32;9.60;;;6.55;;
2055;SDS011;1033;52.560;13.374;2023-03-08T08:54:02;7.90;;;6.07;;
2055;SDS011;1033;52.560;13.374;2023-03-08T08:56:31;9.55;;;6.53;;
2055;SDS011;1033;52.560;13.374;2023-03-08T08:59:01;9.35;;;7.82;;
2055;SDS011;1033;52.560;13.374;2023-03-08T09:01:31;10.65;;;6.70;;
2055;SDS011;1033;52.560;13.374;2023-03-08T09:04:02;7.60;;;6.90;;
2055;SDS011;1033;52.560;13.374;2023-03-08T09:06:33;12.02;;;6.25;;
2055;SDS011;1033;52.560;13.374;2023-03-08T09:09:03;6.30;;;4.72;;
2055;SDS011;1033;52.560;13.374;2023-03-08T09:11:33;10.27;;;6.72;;
2055;SDS011;1033;52.560;13.374;2023-03-08T09:14:19;9.02;;;6.10;;
2055;SDS011;1033;52.560;13.374;2023-03-08T09:16:48;15.15;;;5.03;;
2055;SDS011;1033;52.560;13.374;2023-03-08T09:19:18;8.00;;;4.95;;
2055;SDS011;1033;52.560;13.374;2023-03-08T09:21:49;7.45;;;4.88;;
2055;SDS011;1033;52.560;13.374;2023-03-08T09:24:18;6.20;;;4.97;;
2055;SDS011;1033;52.560;13.374;2023-03-08T09:26:48;8.95;;;4.43;;
2055;SDS011;1033;52.560;13.374;2023-03-08T09:29:17;6.88;;;5.30;;
2055;SDS011;1033;52.560;13.374;2023-03-08T09:31:46;6.00;;;4.35;;
2055;SDS011;1033;52.560;13.374;2023-03-08T09:34:15;7.57;;;4.50;;
2055;SDS011;1033;52.560;13.374;2023-03-08T09:36:45;6.35;;;4.28;;
2055;SDS011;1033;52.560;13.374;2023-03-08T09:39:15;6.82;;;4.30;;
2055;SDS011;1033;52.560;13.374;2023-03-08T09:41:49;4.50;;;3.60;;
2055;SDS011;1033;52.560;13.374;2023-03-08T09:44:29;4.60;;;3.50;;
2055;SDS011;1033;52.560;13.374;2023-03-08T09:47:12;4.75;;;3.55;;
2055;SDS011;1033;52.560;13.374;2023-03-08T09:49:48;5.50;;;3.75;;
2055;SDS011;1033;52.560;13.374;2023-03-08T09:52:21;4.25;;;2.90;;
2055;SDS011;1033;52.560;13.374;2023-03-08T09:54:58;4.57;;;4.00;;
2055;SDS011;1033;52.560;13.374;2023-03-08T09:57:39;5.60;;;3.55;;
2055;SDS011;1033;52.560;13.374;2023-03-08T10:00:17;5.20;;;3.38;;
2055;SDS011;1033;52.560;13.374;2023-03-08T10:02:51;5.40;;;3.72;;
2055;SDS011;1033;52.560;13.374;2023-03-08T10:05:31;6.40;;;2.92;;
2055;SDS011;1033;52.560;13.374;2023-03-08T10:08:06;4.65;;;3.63;;
2055;SDS011;1033;52.560;13.374;2023-03-08T10:10:43;4.72;;;2.85;;
2055;SDS011;1033;52.560;13.374;2023-03-08T10:13:27;8.82;;;3.30;;
2055;SDS011;1033;52.560;13.374;2023-03-08T10:16:04;5.63;;;3.35;;
2055;SDS011;1033;52.560;13.374;2023-03-08T10:18:44;3.97;;;2.50;;
2055;SDS011;1033;52.560;13.374;2023-03-08T10:21:17;6.15;;;3.63;;
2055;SDS011;1033;52.560;13.374;2023-03-08T10:23:52;3.50;;;3.13;;
2055;SDS011;1033;52.560;13.374;2023-03-08T10:26:27;5.40;;;3.55;;
2055;SDS011;1033;52.560;13.374;2023-03-08T10:28:57;6.70;;;3.03;;
2055;SDS011;1033;52.560;13.374;2023-03-08T10:31:27;4.20;;;3.80;;
2055;SDS011;1033;52.560;13.374;2023-03-08T10:34:01;6.60;;;4.38;;
2055;SDS011;1033;52.560;13.374;2023-03-08T10:36:45;6.18;;;4.72;;
2055;SDS011;1033;52.560;13.374;2023-03-08T10:39:16;3.40;;;3.10;;
2055;SDS011;1033;52.560;13.374;2023-03-08T10:41:48;3.40;;;2.67;;
2055;SDS011;1033;52.560;13.374;2023-03-08T10:44:30;3.70;;;3.38;;
2055;SDS011;1033;52.560;13.374;2023-03-08T10:47:03;4.85;;;3.83;;
2055;SDS011;1033;52.560;13.374;2023-03-08T10:49:44;4.70;;;3.67;;
2055;SDS011;1033;52.560;13.374;2023-03-08T10:52:19;4.15;;;3.33;;
2055;SDS011;1033;52.560;13.374;2023-03-08T10:54:59;8.07;;;3.67;;
2055;SDS011;1033;52.560;13.374;2023-03-08T10:57:30;4.30;;;3.13;;
2055;SDS011;1033;52.560;13.374;2023-03-08T11:00:02;4.63;;;3.53;;
2055;SDS011;1033;52.560;13.374;2023-03-08T11:02:39;4.65;;;3.13;;
2055;SDS011;1033;52.560;13.374;2023-03-08T11:05:16;7.00;;;2.95;;
2055;SDS011;1033;52.560;13.374;2023-03-08T11:07:51;5.57;;;3.70;;
2055;SDS011;1033;52.560;13.374;2023-03-08T11:10:23;4.97;;;2.95;;
2055;SDS011;1033;52.560;13.374;2023-03-08T11:13:04;4.13;;;2.70;;
2055;SDS011;1033;52.560;13.374;2023-03-08T11:15:43;4.22;;;3.72;;
2055;SDS011;1033;52.560;13.374;2023-03-08T11:18:19;4.78;;;3.45;;
2055;SDS011;1033;52.560;13.374;2023-03-08T11:20:59;4.45;;;2.58;;
2055;SDS011;1033;52.560;13.374;2023-03-08T11:23:38;2.95;;;2.53;;
2055;SDS011;1033;52.560;13.374;2023-03-08T11:26:17;6.10;;;3.88;;
2055;SDS011;1033;52.560;13.374;2023-03-08T11:29:00;5.85;;;3.60;;
2055;SDS011;1033;52.560;13.374;2023-03-08T11:31:40;5.13;;;3.40;;
2055;SDS011;1033;52.560;13.374;2023-03-08T11:38:41;3.67;;;2.63;;
2055;SDS011;1033;52.560;13.374;2023-03-08T11:41:17;6.43;;;3.08;;
2055;SDS011;1033;52.560;13.374;2023-03-08T11:44:01;6.47;;;4.32;;
2055;SDS011;1033;52.560;13.374;2023-03-08T11:46:42;4.78;;;4.30;;
2055;SDS011;1033;52.560;13.374;2023-03-08T11:49:29;7.18;;;3.88;;
2055;SDS011;1033;52.560;13.374;2023-03-08T11:52:14;6.25;;;4.57;;
2055;SDS011;1033;52.560;13.374;2023-03-08T11:54:57;8.07;;;3.95;;
2055;SDS011;1033;52.560;13.374;2023-03-08T11:57:35;6.78;;;4.90;;
2055;SDS011;1033;52.560;13.374;2023-03-08T12:00:13;6.20;;;3.15;;
2055;SDS011;1033;52.560;13.374;2023-03-08T12:02:49;3.90;;;3.13;;
2055;SDS011;1033;52.560;13.374;2023-03-08T12:05:23;6.97;;;4.25;;
2055;SDS011;1033;52.560;13.374;2023-03-08T12:08:01;4.38;;;3.55;;
2055;SDS011;1033;52.560;13.374;2023-03-08T12:10:40;5.85;;;3.40;;
2055;SDS011;1033;52.560;13.374;2023-03-08T12:13:17;4.43;;;3.50;;
2055;SDS011;1033;52.560;13.374;2023-03-08T12:15:52;4.55;;;3.28;;
2055;SDS011;1033;52.560;13.374;2023-03-08T12:18:28;3.97;;;2.95;;
2055;SDS011;1033;52.560;13.374;2023-03-08T12:21:08;4.38;;;3.60;;
2055;SDS011;1033;52.560;13.374;2023-03-08T12:23:49;3.13;;;2.30;;
2055;SDS011;1033;52.560;13.374;2023-03-08T12:26:30;4.90;;;4.15;;
2055;SDS011;1033;52.560;13.374;2023-03-08T12:29:05;4.90;;;3.28;;
2055;SDS011;1033;52.560;13.374;2023-03-08T12:31:42;3.13;;;2.45;;
2055;SDS011;1033;52.560;13.374;2023-03-08T12:34:22;3.35;;;3.05;;
2055;SDS011;1033;52.560;13.374;2023-03-08T12:36:54;6.07;;;3.42;;
2055;SDS011;1033;52.560;13.374;2023-03-08T12:39:25;5.22;;;3.85;;
2055;SDS011;1033;52.560;13.374;2023-03-08T12:41:57;4.40;;;3.40;;
2055;SDS011;1033;52.560;13.374;2023-03-08T12:44:28;3.38;;;2.80;;
2055;SDS011;1033;52.560;13.374;2023-03-08T12:47:00;3.85;;;3.50;;
2055;SDS011;1033;52.560;13.374;2023-03-08T12:49:43;3.95;;;3.58;;
2055;SDS011;1033;52.560;13.374;2023-03-08T12:52:24;5.22;;;3.63;;
2055;SDS011;1033;52.560;13.374;2023-03-08T12:54:57;6.47;;;4.45;;
2055;SDS011;1033;52.560;13.374;2023-03-08T12:57:29;3.85;;;3.45;;
2055;SDS011;1033;52.560;13.374;2023-03-08T13:00:03;5.07;;;3.60;;
2055;SDS011;1033;52.560;13.374;2023-03-08T13:05:56;3.95;;;3.33;;
2055;SDS011;1033;52.560;13.374;2023-03-08T13:08:28;4.30;;;3.80;;
2055;SDS011;1033;52.560;13.374;2023-03-08T13:11:04;5.07;;;3.20;;
2055;SDS011;1033;52.560;13.374;2023-03-08T13:13:38;7.53;;;4.25;;
2055;SDS011;1033;52.560;13.374;2023-03-08T13:16:20;6.35;;;3.67;;
2055;SDS011;1033;52.560;13.374;2023-03-08T13:19:05;5.93;;;4.25;;
2055;SDS011;1033;52.560;13.374;2023-03-08T13:21:48;9.32;;;5.35;;
2055;SDS011;1033;52.560;13.374;2023-03-08T13:24:27;6.85;;;6.10;;
2055;SDS011;1033;52.560;13.374;2023-03-08T13:27:18;6.22;;;4.55;;
2055;SDS011;1033;52.560;13.374;2023-03-08T13:29:59;6.95;;;3.40;;
2055;SDS011;1033;52.560;13.374;2023-03-08T13:32:42;6.03;;;4.65;;
2055;SDS011;1033;52.560;13.374;2023-03-08T13:35:13;5.50;;;4.68;;
2055;SDS011;1033;52.560;13.374;2023-03-08T13:37:50;5.95;;;3.33;;
2055;SDS011;1033;52.560;13.374;2023-03-08T13:40:22;8.98;;;6.65;;
2055;SDS011;1033;52.560;13.374;2023-03-08T13:42:52;7.72;;;4.80;;
2055;SDS011;1033;52.560;13.374;2023-03-08T13:45:23;5.60;;;4.20;;
2055;SDS011;1033;52.560;13.374;2023-03-08T13:47:53;6.45;;;5.28;;
2055;SDS011;1033;52.560;13.374;2023-03-08T13:50:27;5.57;;;4.90;;
2055;SDS011;1033;52.560;13.374;2023-03-08T13:53:01;5.18;;;4.35;;
2055;SDS011;1033;52.560;13.374;2023-03-08T13:55:35;7.55;;;5.25;;
2055;SDS011;1033;52.560;13.374;2023-03-08T13:58:12;6.30;;;3.75;;
2055;SDS011;1033;52.560;13.374;2023-03-08T14:03:50;5.47;;;4.70;;
2055;SDS011;1033;52.560;13.374;2023-03-08T14:06:23;5.25;;;4.45;;
2055;SDS011;1033;52.560;13.374;2023-03-08T14:08:55;6.03;;;5.07;;
2055;SDS011;1033;52.560;13.374;2023-03-08T14:11:28;8.32;;;5.72;;
2055;SDS011;1033;52.560;13.374;2023-03-08T14:13:59;7.50;;;5.97;;
2055;SDS011;1033;52.560;13.374;2023-03-08T14:16:34;5.28;;;4.50;;
2055;SDS011;1033;52.560;13.374;2023-03-08T14:19:08;6.90;;;5.32;;
2055;SDS011;1033;52.560;13.374;2023-03-08T14:21:47;7.88;;;6.25;;
2055;SDS011;1033;52.560;13.374;2023-03-08T14:24:19;8.05;;;5.75;;
2055;SDS011;1033;52.560;13.374;2023-03-08T14:26:54;9.02;;;5.82;;
2055;SDS011;1033;52.560;13.374;2023-03-08T14:29:26;6.40;;;4.47;;
2055;SDS011;1033;52.560;13.374;2023-03-08T14:31:58;8.48;;;6.53;;
2055;SDS011;1033;52.560;13.374;2023-03-08T14:34:31;9.27;;;6.05;;
2055;SDS011;1033;52.560;13.374;2023-03-08T14:37:05;8.10;;;6.53;;
2055;SDS011;1033;52.560;13.374;2023-03-08T14:39:50;8.45;;;6.43;;
2055;SDS011;1033;52.560;13.374;2023-03-08T14:42:22;12.45;;;6.80;;
2055;SDS011;1033;52.560;13.374;2023-03-08T14:44:55;7.80;;;5.78;;
2055;SDS011;1033;52.560;13.374;2023-03-08T14:47:27;15.70;;;8.43;;
2055;SDS011;1033;52.560;13.374;2023-03-08T14:49:59;10.68;;;7.78;;
2055;SDS011;1033;52.560;13.374;2023-03-08T14:52:33;10.15;;;7.07;;
2055;SDS011;1033;52.560;13.374;2023-03-08T14:55:21;10.13;;;6.75;;
2055;SDS011;1033;52.560;13.374;2023-03-08T14:57:51;13.18;;;7.90;;
2055;SDS011;1033;52.560;13.374;2023-03-08T15:02:58;12.70;;;7.50;;
2055;SDS011;1033;52.560;13.374;2023-03-08T15:05:28;11.38;;;6.82;;
2055;SDS011;1033;52.560;13.374;2023-03-08T15:07:59;12.15;;;7.13;;
2055;SDS011;1033;52.560;13.374;2023-03-08T15:10:29;11.90;;;7.10;;
2055;SDS011;1033;52.560;13.374;2023-03-08T15:13:00;10.52;;;7.82;;
2055;SDS011;1033;52.560;13.374;2023-03-08T15:15:29;8.98;;;6.63;;
2055;SDS011;1033;52.560;13.374;2023-03-08T15:17:58;11.10;;;7.95;;
2055;SDS011;1033;52.560;13.374;2023-03-08T15:20:28;12.00;;;6.70;;
2055;SDS011;1033;52.560;13.374;2023-03-08T15:22:59;8.82;;;7.53;;
2055;SDS011;1033;52.560;13.374;2023-03-08T15:25:33;11.40;;;7.55;;
2055;SDS011;1033;52.560;13.374;2023-03-08T15:28:04;11.25;;;8.05;;
2055;SDS011;1033;52.560;13.374;2023-03-08T15:30:33;12.98;;;8.57;;
2055;SDS011;1033;52.560;13.374;2023-03-08T15:33:02;13.95;;;9.65;;
2055;SDS011;1033;52.560;13.374;2023-03-08T15:35:32;13.10;;;8.93;;
2055;SDS011;1033;52.560;13.374;2023-03-08T15:38:02;12.38;;;8.52;;
2055;SDS011;1033;52.560;13.374;2023-03-08T15:40:32;13.20;;;8.20;;
2055;SDS011;1033;52.560;13.374;2023-03-08T15:43:02;13.77;;;8.90;;
2055;SDS011;1033;52.560;13.374;2023-03-08T15:45:31;14.68;;;8.73;;
2055;SDS011;1033;52.560;13.374;2023-03-08T15:48:01;13.35;;;8.60;;